Chilcoot, CA (96105)

2:02 PM PDT on August 23, 2014 (GMT -0700)
KCAPORTO2 | Change Station
CLOSE
Current Station
Personal Weather Station
Location: Portola, CA
Elevation: 4923 ft
Nearby Weather Stations

Elev 4923 ft 39.82 °N, 120.47 °W | Updated 24 seconds ago

Clear
Clear
81.7 °F
Feels Like 80 °F
N
0.0
Wind Variable Wind from SE
Gusts 1.0 mph

Today
High -- | Low -- °F
--% Chance of Precip.
Yesterday
High -- | Low -- °F
Precip. -- in
6:20 AM 7:45 PM
Waning Crescent, 3% visible
Pressure 30.10 in
Visibility 10.0 miles
Clouds Clear
Heat Index 80 °F
Dew Point 34 °F
Humidity 18%
Rainfall 0.00 in
Snow Depth Not available.
UV 10 out of 12
Pollen 7.90 out of 12
Air Quality Not available.
Flu Activity Not available.
METAR KRTS 232055Z AUTO 00000KT 10SM CLR 23/M02 A3010 RMK AO2

More Conditions Fewer Conditions

Pressure 30.10 in
Visibility 10.0 miles
Clouds Clear
Heat Index 80 °F
Dew Point 34 °F
Humidity 18%
Rainfall 0.00 in
Snow Depth Not available.
UV 10 out of 12
Pollen 7.90 out of 12
Air Quality Not available.
Flu Activity Not available.
METAR KRTS 232055Z AUTO 00000KT 10SM CLR 23/M02 A3010 RMK AO2

More Conditions Fewer Conditions

10-Day Weather Forecast

Almanac

Astronomy

Aug. 23, 2014 Rise Set
Actual Time 6:20 AM PDT 7:45 PM PDT
Civil Twilight 5:52 AM PDT 8:13 PM PDT
Nautical Twilight 5:18 AM PDT 8:47 PM PDT
Astronomical Twilight 4:42 AM PDT 9:23 PM PDT
Moon 4:41 AM PDT 6:33 PM PDT
Length of Visible Light 14h 21m
Length of Day
13h 25m
Tomorrow will be 2m 26s shorter.
Waning Crescent, 3% of the Moon is Illuminated
Today
Waning Crescent
Aug 25
New
Sep 2
First Quarter
Sep 8
Full
Sep 15
Last Quarter

Today's Extremes

State Highs State Lows

Community

WunderPhotos

Upload Photos

1,746,622 photos uploaded!

WunderBlogs® & News

By Dr. Jeff Masters
Director of Meteorology, Weather Underground
By Kari Strenfel
Meteorologist, Weather Underground
By Christopher C. Burt
Weather Historian, Weather Underground
August 23, 2014
August 23, 2014
August 23, 2014

Nearby

Snow Depth

Station Depth Elevation
Fallen Leaf 0 in 6300 ft
Echo Peak 0 in 7800 ft
Adin Mountain 0 in 6200 ft
Leavitt Meadows 0 in 7200 ft
Cedar Pass 0 in 7100 ft

Earthquake Activity

City Distance Mag. Time & Date
No recent earthquake activity has been reported nearby.
Minimum magnitude displayed is 2.5.

Coastal Water Temperatures

Place Temperature
No Stations Reporting

Nearby Weather Stations